Time;durP1;ratioP1;P1;durP2;ratioP2;P2;SDS_P1;SDS_P2;PMS_P1;PMS_P2;Temp;Humidity;BMP_temperature;BMP_pressure;BME280_temperature;BME280_humidity;BME280_pressure;Samples;Min_cycle;Max_cycle;Signal;HPM_P1;HPM_P2
2022/07/15 07:08:59;;;;;;;;;;;;;;;;;;;;;
2022/07/15 07:12:30;;;;;;;6.13;1.17;;;21.60;98.10;;;-144.05;36.70;125687.94;6054790;23;20018;-91
2022/07/15 07:15:56;;;;;;;5.32;0.90;;;21.20;94.30;;;-144.05;37.37;125687.94;6114308;23;20070;-91
2022/07/15 07:18:45;;;;;;;6.30;1.48;;;20.50;95.80;;;-144.05;39.23;125687.94;6099270;23;20018;-89
2022/07/15 07:21:12;;;;;;;3.22;1.00;;;20.10;99.90;;;-144.05;37.99;125687.94;6097414;23;20010;-91
2022/07/15 07:23:41;;;;;;;4.90;1.33;;;20.20;97.50;;;-144.05;37.79;125687.94;6123107;23;20006;-89
2022/07/15 07:26:23;;;;;;;5.80;1.23;;;20.60;98.10;;;-144.05;37.25;125687.94;6121819;23;20407;-89
2022/07/15 07:28:51;;;;;;;7.22;1.10;;;20.70;97.60;;;-144.05;36.12;125687.94;6122381;23;20037;-91
2022/07/15 07:31:25;;;;;;;3.80;1.05;;;21.70;95.80;;;-144.05;34.11;125687.94;6122078;23;20097;-89
2022/07/15 07:33:51;;;;;;;3.13;0.95;;;22.50;91.10;;;-144.05;34.32;125687.94;6100645;23;20006;-91
2022/07/15 07:36:18;;;;;;;3.28;1.10;;;22.80;90.00;;;-144.05;34.21;125687.94;6073921;23;20030;-92
2022/07/15 07:39:14;;;;;;;5.53;1.23;;;22.60;87.30;;;-144.05;34.69;125687.94;6097497;23;20010;-91
2022/07/15 07:41:41;;;;;;;8.15;1.77;;;22.20;86.90;;;-144.05;35.59;125687.94;6052330;23;20329;-90
2022/07/15 07:44:08;;;;;;;7.05;1.30;;;21.90;90.00;;;-144.05;36.35;125687.94;6076296;23;20070;-91
2022/07/15 07:46:36;;;;;;;5.57;1.23;;;21.50;91.50;;;-144.05;37.47;125687.94;6050154;23;20089;-91
2022/07/15 07:49:02;;;;;;;6.03;1.60;;;21.00;93.80;;;-144.05;38.69;125687.94;6050539;23;20025;-91
2022/07/15 07:51:29;;;;;;;4.95;1.40;;;20.50;96.80;;;-144.05;39.48;125687.94;6099493;23;20002;-92
2022/07/15 07:53:56;;;;;;;4.65;1.70;;;20.00;98.60;;;-144.05;40.31;125687.94;6074669;23;20017;-92
2022/07/15 07:56:22;;;;;;;4.88;1.65;;;19.40;99.90;;;-144.05;41.33;125687.94;6076946;23;20014;-92
2022/07/15 07:58:48;;;;;;;7.28;1.45;;;19.10;99.90;;;-144.05;41.78;125687.94;6099887;23;20021;-91
2022/07/15 08:01:15;;;;;;;3.05;0.95;;;18.90;99.90;;;-144.05;41.72;125687.94;6100789;23;20042;-90
2022/07/15 08:03:45;;;;;;;6.68;1.40;;;18.80;99.90;;;-144.05;42.02;125687.94;6103286;23;20388;-91
2022/07/15 08:06:11;;;;;;;6.68;1.30;;;19.00;99.90;;;-144.05;41.67;125687.94;6106636;23;20011;-90
2022/07/15 08:08:38;;;;;;;5.53;1.33;;;19.10;99.90;;;-144.05;41.46;125687.94;6104421;23;20092;-91
2022/07/15 08:11:06;;;;;;;8.48;1.42;;;19.10;99.90;;;-144.05;41.53;125687.94;6104673;23;20498;-91
2022/07/15 08:13:42;;;;;;;7.40;1.23;;;19.20;99.90;;;-144.05;41.45;125687.94;6109354;23;20006;-90
2022/07/15 08:16:20;;;;;;;10.45;1.55;;;19.10;99.90;;;-144.05;41.79;125687.94;6105714;23;20445;-93
2022/07/15 08:18:50;;;;;;;8.18;1.30;;;19.10;99.90;;;-144.05;42.05;125687.94;6104470;23;20033;-90
2022/07/15 08:21:24;;;;;;;8.88;1.58;;;18.80;99.90;;;-144.05;42.41;125687.94;6127725;23;20093;-92
2022/07/15 08:23:50;;;;;;;3.10;0.90;;;18.70;99.90;;;-144.05;43.05;125687.94;6126668;23;20010;-90
2022/07/15 08:26:26;;;;;;;6.03;1.48;;;18.50;99.90;;;-144.05;42.55;125687.94;6104480;23;20122;-90
2022/07/15 08:28:55;;;;;;;;;;;18.80;99.90;;;-144.05;40.92;125687.94;6107257;23;20429;-91
2022/07/15 08:31:23;;;;;;;5.28;1.45;;;19.40;99.90;;;-144.05;39.50;125687.94;6131637;23;19960;-91
2022/07/15 08:33:49;;;;;;;7.10;1.20;;;20.20;99.90;;;-144.05;37.31;125687.94;6133088;23;20041;-90
2022/07/15 08:36:50;;;;;;;5.30;1.15;;;21.40;99.90;;;-144.05;36.17;125687.94;6140616;23;20010;-91
2022/07/15 08:39:51;;;;;;;6.30;1.25;;;21.80;97.80;;;-144.05;36.72;125687.94;6095414;23;20017;-91
2022/07/15 08:43:06;;;;;;;5.55;1.25;;;21.70;97.20;;;-144.05;37.25;125687.94;6131967;23;20006;-90
2022/07/15 08:45:46;;;;;;;6.97;1.20;;;21.40;97.30;;;-144.05;38.50;125687.94;6059258;23;20014;-91
2022/07/15 08:48:51;;;;;;;6.38;1.35;;;21.00;99.80;;;-144.05;38.15;125687.94;6109192;23;20014;-93
2022/07/15 08:51:26;;;;;;;6.28;1.42;;;20.80;99.90;;;-144.05;36.45;125687.94;6123757;23;20007;-92
2022/07/15 08:53:55;;;;;;;7.60;1.38;;;22.10;97.00;;;-144.05;35.68;125687.94;6104257;23;20009;-90
2022/07/15 08:56:22;;;;;;;8.68;1.60;;;22.60;94.70;;;-144.05;34.37;125687.94;6102948;23;20022;-89
2022/07/15 08:59:17;;;;;;;5.22;1.52;;;23.10;91.80;;;-144.05;34.72;125687.94;6126748;23;20077;-91
2022/07/15 09:02:08;;;;;;;8.77;1.42;;;22.50;88.90;;;-144.05;36.00;125687.94;6074977;23;20010;-90
2022/07/15 09:06:06;;;;;;;7.70;1.55;;;21.70;92.20;;;-144.05;36.55;125687.94;6102221;23;20017;-90
2022/07/15 09:08:34;;;;;;;6.18;1.27;;;21.50;93.00;;;-144.05;37.08;125687.94;6015530;23;20019;-91
2022/07/15 09:11:02;;;;;;;4.45;1.35;;;21.40;95.50;;;-144.05;37.91;125687.94;6125929;23;20434;-92
2022/07/15 09:13:39;;;;;;;6.38;1.40;;;21.20;97.50;;;-144.05;38.08;125687.94;6127332;23;20002;-91
2022/07/15 09:16:21;;;;;;;3.03;0.90;;;20.90;97.00;;;-144.05;38.79;125687.94;6127323;23;20010;-90
2022/07/15 09:18:50;;;;;;;4.03;1.10;;;20.60;98.10;;;-144.05;39.15;125687.94;6077637;23;20142;-91
2022/07/15 09:22:04;;;;;;;4.10;1.00;;;20.40;99.20;;;-144.05;38.62;125687.94;6127700;23;20011;-90
2022/07/15 09:24:35;;;;;;;4.68;1.30;;;20.10;97.90;;;-144.05;38.79;125687.94;6101279;23;20017;-90
2022/07/15 09:28:11;;;;;;;5.97;1.30;;;19.90;99.00;;;-144.05;38.56;125687.94;6126839;23;20065;-90
2022/07/15 09:39:55;;;;;;;8.13;1.75;;;22.90;90.10;;;-144.05;32.75;125687.94;6105949;23;20017;-91
2022/07/15 09:44:04;;;;;;;3.20;1.05;;;24.10;81.60;;;-144.05;32.88;125687.94;6065584;23;20010;-90
2022/07/15 09:47:15;;;;;;;4.35;1.40;;;23.50;79.10;;;-144.05;34.20;125687.94;6032979;23;20010;-91
2022/07/15 09:49:53;;;;;;;4.90;1.00;;;22.70;82.40;;;-144.05;35.72;125687.94;6103449;23;20021;-91
2022/07/15 09:52:19;;;;;;;3.97;1.13;;;21.90;86.60;;;-144.05;35.12;125687.94;6078557;23;20504;-90
2022/07/15 09:55:01;;;;;;;3.08;1.02;;;21.50;85.60;;;-144.05;35.26;125687.94;6100093;23;20386;-90
2022/07/15 09:57:29;;;;;;;7.05;1.10;;;21.20;85.50;;;-144.05;35.42;125687.94;6076155;23;20039;-89
2022/07/15 10:00:08;;;;;;;5.43;1.23;;;21.20;87.10;;;-144.05;35.88;125687.94;6075425;23;20017;-90
2022/07/15 10:02:37;;;;;;;8.95;1.58;;;21.30;89.40;;;-144.05;35.69;125687.94;6100946;23;20007;-91
2022/07/15 10:05:32;;;;;;;3.35;1.10;;;21.70;90.00;;;-144.05;34.86;125687.94;6077280;23;20007;-90
2022/07/15 10:08:04;;;;;;;2.63;0.90;;;22.30;87.00;;;-144.05;34.62;125687.94;6101973;23;20018;-89
2022/07/15 10:10:49;;;;;;;8.43;1.45;;;22.50;85.00;;;-144.05;34.95;125687.94;6103215;23;20018;-91
2022/07/15 15:55:38;;;;;;;0.82;0.40;;;22.90;62.40;;;-144.05;31.39;125687.94;6129328;23;20479;-89
2022/07/15 15:58:04;;;;;;;1.52;0.40;;;22.90;64.50;;;-144.05;31.03;125687.94;6113998;23;20026;-82
2022/07/15 16:00:30;;;;;;;1.10;0.40;;;22.80;63.00;;;-144.05;31.29;125687.94;6149892;23;20021;-88
2022/07/15 16:02:55;;;;;;;3.78;0.50;;;22.70;64.40;;;-144.05;31.19;125687.94;6110642;23;20006;-84
2022/07/15 16:05:21;;;;;;;1.00;0.40;;;22.90;63.90;;;-144.05;31.05;125687.94;6105699;23;20014;-89
2022/07/15 16:07:47;;;;;;;2.45;0.70;;;23.00;63.60;;;-144.05;30.90;125687.94;6103059;23;20017;-89
2022/07/15 16:10:13;;;;;;;2.22;0.47;;;23.00;63.50;;;-144.05;30.95;125687.94;6128978;23;20005;-88
2022/07/15 16:12:39;;;;;;;1.35;0.38;;;22.90;63.00;;;-144.05;31.44;125687.94;6130431;23;20025;-86
2022/07/15 16:15:06;;;;;;;0.77;0.50;;;22.80;64.00;;;-144.05;31.58;125687.94;6130064;23;20002;-89
2022/07/15 16:17:32;;;;;;;1.15;0.40;;;22.70;64.70;;;-144.05;31.60;125687.94;6133056;23;20012;-89
2022/07/15 16:19:58;;;;;;;1.00;0.40;;;22.50;64.70;;;-144.05;31.96;125687.94;6106504;23;20010;-87
2022/07/15 16:25:36;;;;;;;1.27;0.45;;;22.30;65.80;;;-144.05;32.36;125687.94;6069957;23;20010;-85
2022/07/15 16:28:07;;;;;;;2.38;0.77;;;22.20;67.30;;;-144.05;32.42;125687.94;6133361;23;20081;-87
2022/07/15 16:30:34;;;;;;;1.40;0.35;;;22.20;66.60;;;-144.05;32.05;125687.94;6136926;23;20006;-88
2022/07/15 16:33:01;;;;;;;3.22;0.50;;;22.30;66.10;;;-144.05;32.40;125687.94;6134226;23;20053;-87
2022/07/15 16:35:30;;;;;;;1.38;0.50;;;22.40;66.60;;;-144.05;31.98;125687.94;6106943;23;20017;-88
2022/07/15 16:37:56;;;;;;;2.13;0.65;;;22.50;66.00;;;-144.05;32.14;125687.94;6132821;23;20009;-89
2022/07/15 16:40:23;;;;;;;1.70;0.50;;;22.40;65.90;;;-144.05;32.03;125687.94;6107402;23;20021;-87
2022/07/15 16:42:50;;;;;;;2.42;0.60;;;22.40;66.30;;;-144.05;32.54;125687.94;6133295;23;20006;-86
2022/07/15 16:45:17;;;;;;;3.00;0.50;;;22.30;67.50;;;-144.05;32.74;125687.94;6131387;23;20013;-86
2022/07/15 16:47:43;;;;;;;1.05;0.55;;;22.30;68.60;;;-144.05;32.50;125687.94;6130978;23;20010;-85
2022/07/15 16:50:10;;;;;;;1.00;0.68;;;22.20;66.90;;;-144.05;31.95;125687.94;6130719;23;20006;-89
2022/07/15 16:52:36;;;;;;;2.15;0.55;;;22.20;66.00;;;-144.05;32.79;125687.94;6133629;23;20002;-86
2022/07/15 16:55:06;;;;;;;2.13;0.40;;;22.10;68.10;;;-144.05;32.83;125687.94;6131972;23;20002;-90
2022/07/15 16:57:34;;;;;;;5.90;0.70;;;22.00;67.30;;;-144.05;33.11;125687.94;6105774;23;20412;-89
2022/07/15 16:59:59;;;;;;;5.32;0.60;;;22.00;68.30;;;-144.05;32.98;125687.94;6129039;23;20006;-88
2022/07/15 17:02:26;;;;;;;4.93;1.00;;;21.90;67.60;;;-144.05;33.20;125687.94;6131014;23;20013;-86
2022/07/15 17:04:52;;;;;;;4.07;0.52;;;21.90;68.50;;;-144.05;33.49;125687.94;6109112;23;20005;-85
2022/07/15 17:07:18;;;;;;;0.40;0.30;;;21.70;69.30;;;-144.05;32.75;125687.94;6114613;23;20017;-84
2022/07/15 17:09:45;;;;;;;1.90;0.50;;;21.50;67.40;;;-144.05;33.27;125687.94;6114389;23;20340;-85
2022/07/15 17:12:12;;;;;;;1.83;0.55;;;21.30;68.90;;;-144.05;33.60;125687.94;6141118;23;20360;-88
2022/07/15 17:14:38;;;;;;;3.85;0.60;;;21.30;69.30;;;-144.05;33.51;125687.94;6136836;23;20033;-84
2022/07/15 17:17:04;;;;;;;1.73;0.40;;;21.30;69.00;;;-144.05;33.81;125687.94;6140047;23;20014;-86
2022/07/15 17:19:31;;;;;;;2.35;0.50;;;21.30;70.40;;;-144.05;34.06;125687.94;6138147;23;20013;-87
2022/07/15 17:21:58;;;;;;;2.47;0.70;;;21.30;70.60;;;-144.05;34.00;125687.94;6141740;23;20068;-87
2022/07/15 17:24:24;;;;;;;1.67;0.40;;;21.20;70.40;;;-144.05;34.10;125687.94;6114463;23;20017;-86
2022/07/15 17:26:51;;;;;;;0.77;0.30;;;21.10;70.20;;;-144.05;34.45;125687.94;6137528;23;20013;-87
2022/07/15 17:29:17;;;;;;;1.38;0.30;;;21.00;71.60;;;-144.05;34.85;125687.94;6111326;23;20009;-87
2022/07/15 17:31:43;;;;;;;3.20;0.70;;;20.90;73.30;;;-144.05;34.84;125687.94;6109859;23;20006;-87
2022/07/15 17:34:09;;;;;;;2.08;0.57;;;20.90;72.80;;;-144.05;34.57;125687.94;6138398;23;20024;-87
2022/07/15 17:36:35;;;;;;;3.30;0.90;;;20.90;72.20;;;-144.05;34.49;125687.94;6138150;23;20022;-86
2022/07/15 17:39:01;;;;;;;1.60;0.60;;;20.90;72.50;;;-144.05;34.59;125687.94;6131403;23;20101;-85
2022/07/15 17:41:27;;;;;;;3.13;0.82;;;21.00;72.80;;;-144.05;34.86;125687.94;6131246;23;20089;-88
2022/07/15 17:43:53;;;;;;;2.72;0.65;;;21.00;73.50;;;-144.05;34.86;125687.94;6130952;23;20006;-84
2022/07/15 17:46:20;;;;;;;4.13;0.75;;;21.00;73.20;;;-144.05;35.19;125687.94;6130716;23;20009;-88
2022/07/15 17:48:47;;;;;;;1.60;0.90;;;20.90;74.20;;;-144.05;34.94;125687.94;6133599;23;20009;-85
2022/07/15 17:51:13;;;;;;;2.65;0.40;;;20.90;73.90;;;-144.05;34.71;125687.94;6143394;23;20001;-83
2022/07/15 17:53:39;;;;;;;1.58;0.50;;;20.80;72.70;;;-144.05;34.86;125687.94;6126454;23;20073;-84
2022/07/15 17:56:05;;;;;;;2.92;0.50;;;20.70;73.30;;;-144.05;35.10;125687.94;6140684;23;20006;-87
2022/07/15 17:58:31;;;;;;;1.00;0.52;;;20.60;74.00;;;-144.05;35.29;125687.94;6134710;23;20010;-86
2022/07/15 18:00:58;;;;;;;1.88;0.70;;;20.50;74.00;;;-144.05;35.28;125687.94;6132311;23;20029;-83
2022/07/15 18:03:26;;;;;;;3.53;0.68;;;20.40;74.60;;;-144.05;35.62;125687.94;6132291;23;20033;-88
2022/07/15 18:05:53;;;;;;;1.30;0.50;;;20.40;75.50;;;-144.05;35.76;125687.94;6132094;23;20017;-85
2022/07/15 18:08:19;;;;;;;1.98;0.55;;;20.40;75.90;;;-144.05;36.00;125687.94;6131450;23;20018;-85
2022/07/15 18:10:46;;;;;;;0.60;0.40;;;20.30;76.90;;;-144.05;36.53;125687.94;6136126;23;20006;-85
2022/07/15 18:13:13;;;;;;;2.78;0.80;;;20.20;78.70;;;-144.05;37.22;125687.94;6134766;23;20017;-87
2022/07/15 18:15:39;;;;;;;2.25;0.55;;;20.10;80.30;;;-144.05;37.06;125687.94;6137315;23;20045;-88
2022/07/15 18:18:06;;;;;;;2.45;0.52;;;20.00;79.70;;;-144.05;37.11;125687.94;6140902;23;20038;-83
2022/07/15 18:20:34;;;;;;;4.40;1.00;;;19.90;80.00;;;-144.05;36.91;125687.94;6125443;23;20053;-82
2022/07/15 18:23:00;;;;;;;4.13;0.93;;;19.90;80.10;;;-144.05;36.97;125687.94;6143791;23;20006;-86
2022/07/15 18:25:26;;;;;;;2.90;1.00;;;19.90;80.60;;;-144.05;37.17;125687.94;6115540;23;19994;-82
2022/07/15 18:27:52;;;;;;;3.92;0.60;;;19.90;81.00;;;-144.05;37.16;125687.94;6140115;23;20014;-89
2022/07/15 18:30:18;;;;;;;1.90;0.82;;;20.00;81.90;;;-144.05;37.18;125687.94;6137123;23;20306;-88
2022/07/15 18:32:46;;;;;;;1.85;0.50;;;20.00;82.20;;;-144.05;37.71;125687.94;6136504;23;20002;-86
2022/07/15 18:35:13;;;;;;;2.17;0.90;;;19.90;83.40;;;-144.05;37.83;125687.94;6135970;23;20006;-86
2022/07/15 18:37:40;;;;;;;2.65;0.70;;;19.80;84.50;;;-144.05;37.51;125687.94;6111740;23;20103;-88
2022/07/15 18:40:08;;;;;;;2.92;0.90;;;19.70;84.00;;;-144.05;37.83;125687.94;6137499;23;20016;-88
2022/07/15 18:42:35;;;;;;;1.63;0.80;;;19.60;85.20;;;-144.05;37.80;125687.94;6137354;23;20014;-90
2022/07/15 18:45:01;;;;;;;2.95;1.10;;;19.60;85.30;;;-144.05;38.05;125687.94;6137539;23;20014;-85
2022/07/15 18:47:27;;;;;;;3.38;1.17;;;19.50;86.40;;;-144.05;38.46;125687.94;6109538;23;20010;-86
2022/07/15 18:49:53;;;;;;;4.55;1.13;;;19.40;88.00;;;-144.05;38.58;125687.94;6112919;23;20008;-87
2022/07/15 18:52:20;;;;;;;4.43;1.40;;;19.20;89.20;;;-144.05;39.07;125687.94;6137030;23;20022;-86
2022/07/15 18:54:46;;;;;;;2.38;0.75;;;19.10;91.00;;;-144.05;39.37;125687.94;6110437;23;20101;-87
2022/07/15 18:57:12;;;;;;;1.45;0.60;;;19.00;91.20;;;-144.05;39.24;125687.94;6110379;23;20017;-88
2022/07/15 18:59:38;;;;;;;2.53;0.80;;;19.00;91.60;;;-144.05;39.34;125687.94;6137835;23;20017;-86
2022/07/15 19:02:04;;;;;;;1.80;0.63;;;18.90;91.90;;;-144.05;39.39;125687.94;6141396;23;20428;-88
2022/07/15 19:04:32;;;;;;;3.40;0.85;;;18.90;92.50;;;-144.05;39.72;125687.94;6107810;23;20093;-88
2022/07/15 19:07:00;;;;;;;3.67;1.15;;;18.80;93.20;;;-144.05;39.86;125687.94;6133286;23;20044;-86
2022/07/15 19:09:26;;;;;;;3.08;1.05;;;18.70;94.00;;;-144.05;39.89;125687.94;6133690;23;20032;-85
2022/07/15 19:11:52;;;;;;;2.40;0.80;;;18.70;94.80;;;-144.05;40.20;125687.94;6136940;23;20006;-87
2022/07/15 19:14:18;;;;;;;2.45;0.57;;;18.60;95.60;;;-144.05;40.49;125687.94;6108629;23;20049;-87
2022/07/15 19:16:44;;;;;;;1.95;0.60;;;18.50;96.80;;;-144.05;40.67;125687.94;6111646;23;20381;-84
2022/07/15 19:19:10;;;;;;;1.10;0.50;;;18.40;97.70;;;-144.05;40.89;125687.94;6135761;23;20021;-88
2022/07/15 19:21:36;;;;;;;4.53;0.90;;;18.20;99.00;;;-144.05;41.17;125687.94;6109556;23;20005;-86
2022/07/15 19:24:03;;;;;;;2.15;0.85;;;18.10;99.90;;;-144.05;41.62;125687.94;6134441;23;20082;-88
2022/07/15 19:26:29;;;;;;;2.25;0.52;;;18.00;99.90;;;-144.05;41.62;125687.94;6136530;23;20010;-87
2022/07/15 19:28:55;;;;;;;2.45;0.70;;;17.90;99.90;;;-144.05;41.98;125687.94;6107585;23;20052;-88
2022/07/15 19:31:25;;;;;;;1.38;0.70;;;17.80;99.90;;;-144.05;42.53;125687.94;6109526;23;20436;-86
2022/07/15 19:33:51;;;;;;;3.75;0.85;;;17.60;99.90;;;-144.05;43.17;125687.94;6134411;23;20072;-86
2022/07/15 19:36:17;;;;;;;3.28;0.80;;;17.50;99.90;;;-144.05;43.37;125687.94;6133827;23;20025;-86
2022/07/15 19:38:43;;;;;;;3.47;0.73;;;17.40;99.90;;;-144.05;43.65;125687.94;6132206;23;20389;-86
2022/07/15 19:41:10;;;;;;;7.45;0.85;;;17.30;99.90;;;-144.05;44.18;125687.94;6131174;23;20459;-85
2022/07/15 19:43:36;;;;;;;3.33;0.55;;;17.10;99.90;;;-144.05;44.56;125687.94;6105696;23;20187;-83
2022/07/15 19:46:02;;;;;;;2.28;0.70;;;17.10;99.90;;;-144.05;44.91;125687.94;6152871;23;20005;-84
2022/07/15 19:48:28;;;;;;;2.45;0.80;;;16.90;99.90;;;-144.05;45.30;125687.94;6135576;23;20018;-83
2022/07/15 19:50:54;;;;;;;1.75;0.65;;;16.80;99.90;;;-144.05;45.88;125687.94;6132818;23;20507;-89
2022/07/15 19:53:20;;;;;;;2.85;1.20;;;16.70;99.90;;;-144.05;46.08;125687.94;6139746;23;20006;-85
2022/07/15 19:55:46;;;;;;;0.90;0.60;;;16.60;99.90;;;-144.05;46.42;125687.94;6138182;23;20032;-87
2022/07/15 19:58:12;;;;;;;2.83;0.95;;;16.50;99.90;;;-144.05;46.59;125687.94;6107401;23;20013;-88
2022/07/15 20:00:42;;;;;;;2.72;0.70;;;16.40;99.90;;;-144.05;46.83;125687.94;6106157;23;20404;-85
2022/07/15 20:03:08;;;;;;;1.80;0.85;;;16.30;99.90;;;-144.05;47.36;125687.94;6134732;23;20392;-87
2022/07/15 20:05:38;;;;;;;6.32;0.80;;;16.30;99.90;;;-144.05;47.84;125687.94;6132604;23;20455;-87
2022/07/15 20:08:07;;;;;;;3.78;0.77;;;16.20;99.90;;;-144.05;47.94;125687.94;6108208;23;20010;-88
2022/07/15 20:10:34;;;;;;;6.18;0.98;;;16.10;99.90;;;-144.05;48.38;125687.94;6108772;23;20124;-85
2022/07/15 20:13:01;;;;;;;5.35;1.00;;;16.10;99.90;;;-144.05;48.77;125687.94;6130251;23;20055;-86
2022/07/15 20:15:27;;;;;;;9.10;1.30;;;15.90;99.90;;;-144.05;48.90;125687.94;6130726;23;20010;-84
2022/07/15 20:17:56;;;;;;;2.00;0.88;;;15.80;99.90;;;-144.05;49.52;125687.94;6130405;23;20020;-86
2022/07/15 20:20:27;;;;;;;3.95;0.90;;;15.70;99.90;;;-144.05;49.98;125687.94;6130178;23;20463;-85
2022/07/15 20:22:54;;;;;;;5.43;1.10;;;15.70;99.90;;;-144.05;50.32;125687.94;6130681;23;20010;-86
2022/07/15 20:25:21;;;;;;;3.45;0.82;;;15.50;99.90;;;-144.05;50.85;125687.94;6131994;23;20095;-89
2022/07/15 20:27:47;;;;;;;2.85;1.20;;;15.40;99.90;;;-144.05;50.87;125687.94;6132752;23;20057;-88
2022/07/15 20:30:17;;;;;;;3.53;1.80;;;15.40;99.90;;;-144.05;51.43;125687.94;6134354;23;20010;-87
2022/07/15 20:32:48;;;;;;;4.38;1.85;;;15.30;99.90;;;-144.05;51.34;125687.94;6137311;23;20042;-90
2022/07/15 20:35:15;;;;;;;2.80;1.58;;;15.40;99.90;;;-144.05;51.73;125687.94;6141449;23;20080;-86
2022/07/15 20:37:43;;;;;;;5.20;1.70;;;15.40;99.90;;;-144.05;51.56;125687.94;6152045;23;20037;-84
2022/07/15 20:40:09;;;;;;;4.00;1.52;;;15.40;99.90;;;-144.05;51.81;125687.94;6148927;23;20017;-88
2022/07/15 20:42:36;;;;;;;4.28;1.42;;;15.40;99.90;;;-144.05;51.80;125687.94;6144152;23;20018;-87
2022/07/15 20:45:03;;;;;;;2.65;1.48;;;15.40;99.90;;;-144.05;52.04;125687.94;6135851;23;20037;-85
2022/07/15 20:47:31;;;;;;;5.07;1.80;;;15.30;99.90;;;-144.05;52.21;125687.94;6135362;23;20010;-90
2022/07/15 20:50:00;;;;;;;6.20;1.80;;;15.30;99.90;;;-144.05;52.31;125687.94;6137187;23;20006;-88
2022/07/15 20:52:28;;;;;;;3.55;1.30;;;15.30;99.90;;;-144.05;52.21;125687.94;6139757;23;20006;-86
2022/07/15 20:54:54;;;;;;;3.70;1.35;;;15.30;99.90;;;-144.05;52.50;125687.94;6115838;23;20029;-87
2022/07/15 20:57:20;;;;;;;3.83;1.80;;;15.20;99.90;;;-144.05;52.91;125687.94;6138026;23;20020;-90
2022/07/15 20:59:46;;;;;;;3.92;1.48;;;15.20;99.90;;;-144.05;52.99;125687.94;6134356;23;20475;-87
2022/07/15 21:02:13;;;;;;;5.15;1.50;;;15.10;99.90;;;-144.05;53.31;125687.94;6108250;23;20010;-91
2022/07/15 21:04:39;;;;;;;2.00;1.42;;;15.10;99.90;;;-144.05;53.34;125687.94;6135638;23;20057;-90
2022/07/15 21:07:05;;;;;;;2.30;1.30;;;15.10;99.90;;;-144.05;53.41;125687.94;6132064;23;20097;-91
2022/07/15 21:09:31;;;;;;;2.67;1.38;;;15.10;99.90;;;-144.05;53.61;125687.94;6137333;23;20120;-91
2022/07/15 21:11:57;;;;;;;3.28;1.55;;;15.00;99.90;;;-144.05;53.61;125687.94;6111982;23;20424;-90
2022/07/15 21:14:23;;;;;;;3.33;1.30;;;15.00;99.90;;;-144.05;53.65;125687.94;6116004;23;20006;-87
2022/07/15 21:16:52;;;;;;;1.75;1.08;;;15.00;99.90;;;-144.05;53.74;125687.94;6122981;23;20005;-86
2022/07/15 21:19:18;;;;;;;4.53;1.63;;;14.90;99.90;;;-144.05;53.93;125687.94;6143209;23;20029;-90
2022/07/15 21:21:45;;;;;;;2.55;1.23;;;14.90;99.90;;;-144.05;54.21;125687.94;6144192;23;20078;-91
2022/07/15 21:26:57;;;;;;;7.05;2.40;;;14.70;99.90;;;-144.05;55.09;125687.94;6138587;23;20012;-86
2022/07/15 21:29:23;;;;;;;6.68;1.70;;;14.70;99.90;;;-144.05;55.17;125687.94;6144732;23;20014;-87
2022/07/15 21:31:48;;;;;;;5.78;1.90;;;14.70;99.90;;;-144.05;55.65;125687.94;6131856;23;20018;-91
2022/07/15 21:34:18;;;;;;;3.28;2.35;;;14.70;99.90;;;-144.05;55.99;125687.94;6168256;23;20029;-87
2022/07/15 21:36:44;;;;;;;3.50;2.13;;;14.60;99.90;;;-144.05;56.40;125687.94;6144469;23;20020;-85
2022/07/15 21:39:11;;;;;;;4.85;1.60;;;14.50;99.90;;;-144.05;56.59;125687.94;6151417;23;20018;-87
2022/07/15 21:41:37;;;;;;;2.65;1.48;;;14.50;99.90;;;-144.05;56.76;125687.94;6121878;23;20033;-89
2022/07/15 21:44:04;;;;;;;4.15;1.92;;;14.40;99.90;;;-144.05;56.81;125687.94;6141862;23;20413;-87
2022/07/15 21:46:32;;;;;;;4.47;1.85;;;14.40;99.90;;;-144.05;57.24;125687.94;6116413;23;20022;-89
2022/07/15 21:48:59;;;;;;;5.38;2.28;;;14.40;99.90;;;-144.05;57.18;125687.94;6115785;23;20010;-88
2022/07/15 21:51:25;;;;;;;5.90;1.95;;;14.30;99.90;;;-144.05;57.43;125687.94;6116227;23;20044;-86
2022/07/15 21:53:51;;;;;;;4.93;2.05;;;14.40;99.90;;;-144.05;57.54;125687.94;6143200;23;20002;-89
2022/07/15 21:56:18;;;;;;;4.78;1.70;;;14.30;99.90;;;-144.05;57.59;125687.94;6116313;23;20010;-87
2022/07/15 21:58:44;;;;;;;3.83;1.50;;;14.30;99.90;;;-144.05;57.88;125687.94;6138901;23;20014;-86
2022/07/15 22:01:11;;;;;;;3.97;1.70;;;14.20;99.90;;;-144.05;58.07;125687.94;6140626;23;20009;-87
2022/07/15 22:03:40;;;;;;;4.90;1.65;;;14.20;99.90;;;-144.05;58.00;125687.94;6111232;23;20013;-90
2022/07/15 22:06:08;;;;;;;5.43;2.20;;;14.20;99.90;;;-144.05;58.36;125687.94;6133368;23;20041;-89
2022/07/15 22:08:37;;;;;;;3.80;1.63;;;14.20;99.90;;;-144.05;58.14;125687.94;6135396;23;20006;-90
2022/07/15 22:11:03;;;;;;;5.60;2.25;;;14.20;99.90;;;-144.05;58.33;125687.94;6136340;23;20006;-89
2022/07/15 22:13:30;;;;;;;2.28;1.40;;;14.30;99.90;;;-144.05;58.00;125687.94;6133804;23;20028;-89
2022/07/15 22:16:01;;;;;;;3.80;2.10;;;14.30;99.90;;;-144.05;57.77;125687.94;6084822;23;20121;-88
2022/07/15 22:18:27;;;;;;;7.50;2.40;;;14.50;99.90;;;-144.05;57.52;125687.94;6132072;23;20016;-88
2022/07/15 22:20:53;;;;;;;4.20;1.75;;;14.50;99.90;;;-144.05;57.16;125687.94;6132158;23;20343;-88
2022/07/15 22:23:20;;;;;;;4.38;1.90;;;14.60;99.90;;;-144.05;56.92;125687.94;6115338;23;20010;-87
2022/07/15 22:25:46;;;;;;;4.18;1.88;;;14.70;99.90;;;-144.05;56.74;125687.94;6112427;23;20014;-88
2022/07/15 22:28:12;;;;;;;4.57;1.80;;;14.80;99.90;;;-144.05;56.61;125687.94;6132065;23;20337;-88
2022/07/15 22:30:38;;;;;;;6.68;1.80;;;14.90;99.90;;;-144.05;56.35;125687.94;6133811;23;20014;-88
2022/07/15 22:33:04;;;;;;;5.05;2.22;;;15.00;99.90;;;-144.05;56.09;125687.94;6137245;23;20016;-89
2022/07/15 22:35:30;;;;;;;4.88;2.22;;;15.00;99.90;;;-144.05;56.03;125687.94;6136572;23;20022;-87
2022/07/15 22:37:56;;;;;;;5.25;2.00;;;15.10;99.90;;;-144.05;55.84;125687.94;6131703;23;20014;-88
2022/07/15 22:40:22;;;;;;;3.65;1.80;;;15.10;99.90;;;-144.05;55.55;125687.94;6133750;23;20113;-88
2022/07/15 22:42:48;;;;;;;4.78;1.98;;;15.20;99.90;;;-144.05;55.42;125687.94;6131788;23;20352;-89
2022/07/15 22:45:14;;;;;;;5.10;1.80;;;15.20;99.90;;;-144.05;55.06;125687.94;6135825;23;20010;-88
2022/07/15 22:47:41;;;;;;;8.30;2.05;;;15.30;99.90;;;-144.05;54.53;125687.94;6136793;23;20084;-88
2022/07/15 22:50:08;;;;;;;5.47;2.10;;;15.40;99.90;;;-144.05;54.20;125687.94;6110100;23;20006;-88
2022/07/15 22:52:37;;;;;;;7.88;2.28;;;15.50;99.90;;;-144.05;53.66;125687.94;6135115;23;20405;-88
2022/07/15 22:55:05;;;;;;;3.63;1.70;;;15.60;99.90;;;-144.05;53.54;125687.94;6143105;23;20069;-90
2022/07/15 22:57:31;;;;;;;5.90;2.13;;;15.70;99.90;;;-144.05;53.44;125687.94;6137794;23;20006;-86
2022/07/15 22:59:57;;;;;;;6.32;2.00;;;15.80;99.90;;;-144.05;53.41;125687.94;6130086;23;20337;-89
2022/07/15 23:02:24;;;;;;;4.93;1.95;;;15.70;99.90;;;-144.05;53.43;125687.94;6128952;23;20062;-86
2022/07/15 23:04:50;;;;;;;6.15;1.90;;;15.80;99.90;;;-144.05;53.37;125687.94;6130136;23;20014;-86
2022/07/15 23:07:17;;;;;;;3.95;1.80;;;15.80;99.90;;;-144.05;53.06;125687.94;6128975;23;20434;-86
2022/07/15 23:09:43;;;;;;;6.05;2.35;;;15.90;99.90;;;-144.05;52.87;125687.94;6129745;23;20385;-86
2022/07/15 23:12:10;;;;;;;4.18;1.70;;;16.00;99.90;;;-144.05;52.96;125687.94;6128901;23;20013;-86
2022/07/15 23:14:35;;;;;;;5.68;1.83;;;16.00;99.90;;;-144.05;52.62;125687.94;6130410;23;20017;-88
2022/07/15 23:17:01;;;;;;;2.70;1.60;;;16.10;99.90;;;-144.05;52.55;125687.94;6143809;23;20360;-88
2022/07/15 23:19:27;;;;;;;4.63;2.13;;;16.10;99.90;;;-144.05;52.40;125687.94;6128998;23;20010;-89